EET,Max TemperatureF,Mean TemperatureF,Min TemperatureF,Max Dew PointF,MeanDew PointF,Min DewpointF,Max Humidity, Mean Humidity, Min Humidity, Max Sea Level PressureIn, Mean Sea Level PressureIn, Min Sea Level PressureIn, Max VisibilityMiles, Mean VisibilityMiles, Min VisibilityMiles, Max Wind SpeedMPH, Mean Wind SpeedMPH, Max Gust SpeedMPH,PrecipitationIn, CloudCover, Events, WindDirDegrees
2012-11-1,86,72,59,48,46,41,59,42,25,30.09,30.03,29.92,12,9,6,12,3,,0.00,5,,63
2012-11-2,86,72,57,48,45,41,63,39,17,30.01,29.98,29.84,12,11,9,12,3,,0.00,,,62
2012-11-3,84,71,58,47,44,41,55,39,14,30.06,29.99,29.85,9,9,9,5,1,,0.00,,,113
2012-11-4,84,68,53,48,45,39,77,46,18,30.09,30.06,29.95,9,9,9,5,0,,0.00,,,37
2012-11-5,79,65,51,52,45,39,67,45,21,30.12,30.06,29.96,9,8,6,7,2,,0.00,2,,83
2012-11-6,82,67,52,48,44,39,67,44,20,30.09,30.04,29.92,12,8,6,12,1,,0.00,3,,130
2012-11-7,84,67,50,52,44,39,67,44,16,30.12,30.06,29.94,12,10,9,7,1,,0.00,,,90
2012-11-8,83,66,48,55,45,34,77,48,16,30.06,29.95,29.81,9,9,9,12,1,,0.00,,,265
2012-11-9,73,62,51,59,54,48,100,79,53,29.92,29.87,29.77,9,6,2,23,5,,0.16,3,Rain-Thunderstorm,241
2012-11-10,61,59,57,61,56,54,100,89,73,29.95,29.91,29.83,9,6,5,30,14,,0.12,3,Rain,232
2012-11-11,61,56,51,55,52,48,100,81,4,29.98,29.92,29.84,9,6,4,30,15,,0.00,3,Rain,255
2012-11-12,64,58,51,52,49,45,94,78,42,30.01,29.96,29.88,9,7,6,18,9,,0.00,3,,247
2012-11-13,66,54,42,50,46,41,93,75,33,30.04,30.01,29.95,9,7,6,7,0,,0.00,4,,196
2012-11-14,70,55,40,52,46,39,100,73,29,30.12,30.05,29.85,9,3,0,0,0,,0.00,7,Fog,-1
2012-11-15,68,54,39,52,45,41,100,78,39,30.21,30.15,30.09,9,4,0,5,0,,0.00,1,Fog,180
2012-11-16,69,56,44,46,43,39,87,62,23,30.24,30.18,30.11,12,10,9,12,3,,0.00,,,98
2012-11-17,66,58,50,46,42,39,76,55,28,30.15,30.09,29.98,12,7,6,23,9,40,0.00,4,,59
2012-11-18,59,55,50,54,48,43,94,74,48,30.09,30.03,29.94,12,6,4,16,8,,0.16,4,Rain,73
2012-11-19,59,54,48,50,49,48,100,87,72,30.09,30.06,29.99,9,6,4,9,1,,0.00,5,,23
2012-11-20,63,56,50,52,49,47,94,80,49,30.12,30.08,30.02,9,6,1,5,0,,0.00,3,,350
2012-11-21,65,54,44,50,47,41,100,80,47,30.12,30.06,30.01,12,6,0,2,0,,0.00,2,Fog,101
2012-11-22,63,53,43,48,46,41,100,76,48,30.04,29.97,29.87,12,6,4,14,3,,0.00,2,,87
2012-11-23,57,50,42,52,50,43,100,90,78,30.01,29.96,29.88,9,5,0,5,1,,0.00,5,Fog-Rain,30
2012-11-24,62,52,42,52,49,41,100,83,52,30.04,30.00,29.94,9,4,0,7,0,,0.00,4,Fog-Rain,167
2012-11-25,65,55,44,52,47,41,100,82,42,30.04,30.01,29.91,9,5,0,5,0,,0.00,2,Fog,215
2012-11-26,62,50,37,46,42,37,100,80,47,30.09,30.06,30.00,9,3,0,5,0,,0.00,3,Fog,85
2012-11-27,62,48,35,45,41,36,100,79,40,30.18,30.12,30.07,9,4,0,0,0,,0.00,3,Fog,-1
2012-11-28,66,52,37,46,40,36,93,70,33,30.30,30.20,30.15,9,8,6,2,0,,0.00,2,,115
2012-11-29,66,52,37,45,37,34,93,71,32,30.24,30.19,30.15,9,9,9,7,0,,0.00,,,232
2012-11-30,64,52,40,41,38,36,93,65,29,30.24,30.19,30.13,9,7,6,5,1,,0.00,2,,45